Anzahl Datensätze: 24
min. Temperatur: 11.6 °C
max. Temperatur: 24.9 °C
max. Windgeschwindigkeit: 9.7 km/h
Niederschlagsumme: 0.0 mm
| Datum |
Zeit |
Temp °C |
Feuchte % |
Taupunkt °C |
Luftdruck hPa |
Wind km/h |
Windrichtung |
Strahlung w/m² |
Niederschlag mm |
|---|---|---|---|---|---|---|---|---|---|
| 21.05.2023 | 00:06 | 13.3 | 79 | 9.7 | 1018.3 | 0.0 | NO | 0 | 0.0 |
| 21.05.2023 | 01:06 | 12.8 | 82 | 9.8 | 1018.0 | 0.0 | NO | 0 | 0.0 |
| 21.05.2023 | 02:06 | 11.9 | 85 | 9.5 | 1017.5 | 0.0 | NO | 0 | 0.0 |
| 21.05.2023 | 03:06 | 11.6 | 86 | 9.3 | 1016.9 | 0.0 | NNW | 0 | 0.0 |
| 21.05.2023 | 04:06 | 11.8 | 87 | 9.7 | 1016.8 | 0.0 | NNW | 0 | 0.0 |
| 21.05.2023 | 05:06 | 11.8 | 87 | 9.7 | 1016.4 | 0.0 | NNW | 0 | 0.0 |
| 21.05.2023 | 06:06 | 11.6 | 88 | 9.7 | 1016.4 | 0.0 | NNW | 5 | 0.0 |
| 21.05.2023 | 07:06 | 11.8 | 89 | 10.0 | 1016.4 | 0.0 | NNW | 58 | 0.0 |
| 21.05.2023 | 08:06 | 13.4 | 86 | 11.1 | 1016.2 | 0.0 | WSW | 162 | 0.0 |
| 21.05.2023 | 09:06 | 15.7 | 80 | 12.3 | 1016.4 | 0.0 | O | 311 | 0.0 |
| 21.05.2023 | 10:06 | 17.2 | 77 | 13.1 | 1016.2 | 0.0 | OSO | 591 | 0.0 |
| 21.05.2023 | 11:06 | 19.3 | 73 | 14.3 | 1015.8 | 0.0 | O | 846 | 0.0 |
| 21.05.2023 | 12:06 | 20.9 | 69 | 15.0 | 1015.3 | 0.0 | OSO | 823 | 0.0 |
| 21.05.2023 | 13:06 | 22.6 | 62 | 14.9 | 1014.9 | 0.0 | O | 1074 | 0.0 |
| 21.05.2023 | 14:06 | 23.2 | 58 | 14.5 | 1014.5 | 0.0 | O | 598 | 0.0 |
| 21.05.2023 | 15:06 | 24.2 | 54 | 14.3 | 1014.3 | 0.0 | O | 306 | 0.0 |
| 21.05.2023 | 16:06 | 24.9 | 48 | 13.1 | 1014.0 | 0.0 | ONO | 663 | 0.0 |
| 21.05.2023 | 17:06 | 23.7 | 57 | 14.7 | 1014.0 | 0.0 | OSO | 98 | 0.0 |
| 21.05.2023 | 18:06 | 23.2 | 58 | 14.5 | 1014.2 | 0.0 | OSO | 47 | 0.0 |
| 21.05.2023 | 19:06 | 18.6 | 81 | 15.3 | 1015.0 | 0.0 | N | 37 | 0.0 |
| 21.05.2023 | 20:06 | 18.3 | 83 | 15.4 | 1015.2 | 0.0 | WNW | 49 | 0.0 |
| 21.05.2023 | 21:06 | 17.7 | 87 | 15.5 | 1015.1 | 0.0 | NW | 11 | 0.0 |
| 21.05.2023 | 22:06 | 16.8 | 89 | 15.0 | 1015.5 | 0.0 | NNW | 0 | 0.0 |
| 21.05.2023 | 23:06 | 15.9 | 90 | 14.3 | 1015.9 | 0.0 | NNW | 0 | 0.0 |